sensor_id;sensor_type;location;lat;lon;timestamp;temperature;humidity
13998;DHT22;7074;51.508;7.018;2023-04-06T00:01:01;5.50;99.90
13998;DHT22;7074;51.508;7.018;2023-04-06T00:03:28;5.50;99.90
13998;DHT22;7074;51.508;7.018;2023-04-06T00:05:57;5.50;99.90
13998;DHT22;7074;51.508;7.018;2023-04-06T00:08:26;5.50;99.90
13998;DHT22;7074;51.508;7.018;2023-04-06T00:10:53;5.50;99.90
13998;DHT22;7074;51.508;7.018;2023-04-06T00:13:21;5.40;99.90
13998;DHT22;7074;51.508;7.018;2023-04-06T00:15:48;5.40;99.90
13998;DHT22;7074;51.508;7.018;2023-04-06T00:18:16;5.30;99.90
13998;DHT22;7074;51.508;7.018;2023-04-06T00:20:44;5.30;99.90
13998;DHT22;7074;51.508;7.018;2023-04-06T00:23:13;5.20;99.90
13998;DHT22;7074;51.508;7.018;2023-04-06T00:25:40;5.20;99.90
13998;DHT22;7074;51.508;7.018;2023-04-06T00:28:07;5.30;99.90
13998;DHT22;7074;51.508;7.018;2023-04-06T00:30:35;5.30;99.90
13998;DHT22;7074;51.508;7.018;2023-04-06T00:33:02;5.30;99.90
13998;DHT22;7074;51.508;7.018;2023-04-06T00:35:29;5.30;99.90
13998;DHT22;7074;51.508;7.018;2023-04-06T00:37:57;5.20;99.90
13998;DHT22;7074;51.508;7.018;2023-04-06T00:40:26;5.20;99.90
13998;DHT22;7074;51.508;7.018;2023-04-06T00:42:54;5.20;99.90
13998;DHT22;7074;51.508;7.018;2023-04-06T00:45:22;5.10;99.90
13998;DHT22;7074;51.508;7.018;2023-04-06T00:47:49;5.10;99.90
13998;DHT22;7074;51.508;7.018;2023-04-06T00:50:17;5.10;99.90
13998;DHT22;7074;51.508;7.018;2023-04-06T00:52:44;5.20;99.90
13998;DHT22;7074;51.508;7.018;2023-04-06T00:55:12;5.10;99.90
13998;DHT22;7074;51.508;7.018;2023-04-06T00:57:43;4.90;99.90
13998;DHT22;7074;51.508;7.018;2023-04-06T01:00:12;4.80;99.90
13998;DHT22;7074;51.508;7.018;2023-04-06T01:02:41;4.90;99.90
13998;DHT22;7074;51.508;7.018;2023-04-06T01:05:10;4.90;99.90
13998;DHT22;7074;51.508;7.018;2023-04-06T01:07:49;4.90;99.90
13998;DHT22;7074;51.508;7.018;2023-04-06T01:10:25;4.90;99.90
13998;DHT22;7074;51.508;7.018;2023-04-06T01:12:59;4.80;99.90
13998;DHT22;7074;51.508;7.018;2023-04-06T01:15:46;4.80;99.90
13998;DHT22;7074;51.508;7.018;2023-04-06T01:18:25;4.70;99.90
13998;DHT22;7074;51.508;7.018;2023-04-06T01:20:59;4.70;99.90
13998;DHT22;7074;51.508;7.018;2023-04-06T01:23:29;4.60;99.90
13998;DHT22;7074;51.508;7.018;2023-04-06T01:25:56;4.60;99.90
13998;DHT22;7074;51.508;7.018;2023-04-06T01:28:24;4.50;99.90
13998;DHT22;7074;51.508;7.018;2023-04-06T01:31:04;4.40;99.90
13998;DHT22;7074;51.508;7.018;2023-04-06T01:33:57;4.40;99.90
13998;DHT22;7074;51.508;7.018;2023-04-06T01:36:26;4.50;99.90
13998;DHT22;7074;51.508;7.018;2023-04-06T01:39:04;4.50;99.90
13998;DHT22;7074;51.508;7.018;2023-04-06T01:41:35;4.50;99.90
13998;DHT22;7074;51.508;7.018;2023-04-06T01:44:03;4.40;99.90
13998;DHT22;7074;51.508;7.018;2023-04-06T01:46:31;4.40;99.90
13998;DHT22;7074;51.508;7.018;2023-04-06T01:49:01;4.30;99.90
13998;DHT22;7074;51.508;7.018;2023-04-06T01:51:39;4.20;99.90
13998;DHT22;7074;51.508;7.018;2023-04-06T01:54:12;4.30;99.90
13998;DHT22;7074;51.508;7.018;2023-04-06T01:56:52;4.30;99.90
13998;DHT22;7074;51.508;7.018;2023-04-06T01:59:29;4.30;99.90
13998;DHT22;7074;51.508;7.018;2023-04-06T02:01:59;4.20;99.90
13998;DHT22;7074;51.508;7.018;2023-04-06T02:04:28;4.10;99.90
13998;DHT22;7074;51.508;7.018;2023-04-06T02:07:06;4.20;99.90
13998;DHT22;7074;51.508;7.018;2023-04-06T02:09:35;4.20;99.90
13998;DHT22;7074;51.508;7.018;2023-04-06T02:12:05;4.10;99.90
13998;DHT22;7074;51.508;7.018;2023-04-06T02:14:34;4.10;99.90
13998;DHT22;7074;51.508;7.018;2023-04-06T02:17:01;4.10;99.90
13998;DHT22;7074;51.508;7.018;2023-04-06T02:19:28;4.00;99.90
13998;DHT22;7074;51.508;7.018;2023-04-06T02:21:56;4.00;99.90
13998;DHT22;7074;51.508;7.018;2023-04-06T02:24:23;4.00;99.90
13998;DHT22;7074;51.508;7.018;2023-04-06T02:26:52;4.00;99.90
13998;DHT22;7074;51.508;7.018;2023-04-06T02:29:20;4.00;99.90
13998;DHT22;7074;51.508;7.018;2023-04-06T02:31:48;4.00;99.90
13998;DHT22;7074;51.508;7.018;2023-04-06T02:34:16;3.90;99.90
13998;DHT22;7074;51.508;7.018;2023-04-06T02:36:47;3.90;99.90
13998;DHT22;7074;51.508;7.018;2023-04-06T02:39:15;3.80;99.90
13998;DHT22;7074;51.508;7.018;2023-04-06T02:41:42;3.90;99.90
13998;DHT22;7074;51.508;7.018;2023-04-06T02:44:14;4.00;99.90
13998;DHT22;7074;51.508;7.018;2023-04-06T02:46:43;4.00;99.90
13998;DHT22;7074;51.508;7.018;2023-04-06T02:49:11;4.00;99.90
13998;DHT22;7074;51.508;7.018;2023-04-06T02:51:38;3.90;99.90
13998;DHT22;7074;51.508;7.018;2023-04-06T02:54:19;3.80;99.90
13998;DHT22;7074;51.508;7.018;2023-04-06T02:56:47;3.80;99.90
13998;DHT22;7074;51.508;7.018;2023-04-06T02:59:16;3.90;99.90
13998;DHT22;7074;51.508;7.018;2023-04-06T03:01:52;3.90;99.90
13998;DHT22;7074;51.508;7.018;2023-04-06T03:04:19;3.90;99.90
13998;DHT22;7074;51.508;7.018;2023-04-06T03:06:49;3.90;99.90
13998;DHT22;7074;51.508;7.018;2023-04-06T03:09:30;3.80;99.90
13998;DHT22;7074;51.508;7.018;2023-04-06T03:11:57;3.70;99.90
13998;DHT22;7074;51.508;7.018;2023-04-06T03:14:28;3.60;99.90
13998;DHT22;7074;51.508;7.018;2023-04-06T03:16:56;3.70;99.90
13998;DHT22;7074;51.508;7.018;2023-04-06T03:19:24;3.70;99.90
13998;DHT22;7074;51.508;7.018;2023-04-06T03:21:53;3.70;99.90
13998;DHT22;7074;51.508;7.018;2023-04-06T03:24:22;3.70;99.90
13998;DHT22;7074;51.508;7.018;2023-04-06T03:26:50;3.60;99.90
13998;DHT22;7074;51.508;7.018;2023-04-06T03:29:18;3.70;99.90
13998;DHT22;7074;51.508;7.018;2023-04-06T03:31:46;3.60;99.90
13998;DHT22;7074;51.508;7.018;2023-04-06T03:34:32;3.60;99.90
13998;DHT22;7074;51.508;7.018;2023-04-06T03:37:01;3.50;99.90
13998;DHT22;7074;51.508;7.018;2023-04-06T03:39:29;3.50;99.90
13998;DHT22;7074;51.508;7.018;2023-04-06T03:41:58;3.50;99.90
13998;DHT22;7074;51.508;7.018;2023-04-06T03:44:32;3.50;99.90
13998;DHT22;7074;51.508;7.018;2023-04-06T03:47:01;3.60;99.90
13998;DHT22;7074;51.508;7.018;2023-04-06T03:49:29;3.50;99.90
13998;DHT22;7074;51.508;7.018;2023-04-06T03:51:58;3.50;99.90
13998;DHT22;7074;51.508;7.018;2023-04-06T03:54:25;3.40;99.90
13998;DHT22;7074;51.508;7.018;2023-04-06T03:56:53;3.40;99.90
13998;DHT22;7074;51.508;7.018;2023-04-06T03:59:20;3.40;99.90
13998;DHT22;7074;51.508;7.018;2023-04-06T04:01:48;3.50;99.90
13998;DHT22;7074;51.508;7.018;2023-04-06T04:04:17;3.50;99.90
13998;DHT22;7074;51.508;7.018;2023-04-06T04:06:44;3.50;99.90
13998;DHT22;7074;51.508;7.018;2023-04-06T04:09:11;3.40;99.90
13998;DHT22;7074;51.508;7.018;2023-04-06T04:11:39;3.40;99.90
13998;DHT22;7074;51.508;7.018;2023-04-06T04:14:06;3.40;99.90
13998;DHT22;7074;51.508;7.018;2023-04-06T04:16:33;3.40;99.90
13998;DHT22;7074;51.508;7.018;2023-04-06T04:19:02;3.40;99.90
13998;DHT22;7074;51.508;7.018;2023-04-06T04:21:31;3.40;99.90
13998;DHT22;7074;51.508;7.018;2023-04-06T04:24:04;3.30;99.90
13998;DHT22;7074;51.508;7.018;2023-04-06T04:26:34;3.40;99.90
13998;DHT22;7074;51.508;7.018;2023-04-06T04:29:01;3.40;99.90
13998;DHT22;7074;51.508;7.018;2023-04-06T04:31:28;3.50;99.90
13998;DHT22;7074;51.508;7.018;2023-04-06T04:34:00;3.50;99.90
13998;DHT22;7074;51.508;7.018;2023-04-06T04:36:32;3.40;99.90
13998;DHT22;7074;51.508;7.018;2023-04-06T04:39:03;3.30;99.90
13998;DHT22;7074;51.508;7.018;2023-04-06T04:41:36;3.30;99.90
13998;DHT22;7074;51.508;7.018;2023-04-06T04:44:07;3.30;99.90
13998;DHT22;7074;51.508;7.018;2023-04-06T04:46:34;3.20;99.90
13998;DHT22;7074;51.508;7.018;2023-04-06T04:49:02;3.20;99.90
13998;DHT22;7074;51.508;7.018;2023-04-06T04:51:32;3.20;99.90
13998;DHT22;7074;51.508;7.018;2023-04-06T04:54:07;3.20;99.90
13998;DHT22;7074;51.508;7.018;2023-04-06T04:56:34;3.20;99.90
13998;DHT22;7074;51.508;7.018;2023-04-06T04:59:18;3.10;99.90
13998;DHT22;7074;51.508;7.018;2023-04-06T05:01:53;3.20;99.90
13998;DHT22;7074;51.508;7.018;2023-04-06T05:04:23;3.30;99.90
13998;DHT22;7074;51.508;7.018;2023-04-06T05:07:04;3.30;99.90
13998;DHT22;7074;51.508;7.018;2023-04-06T05:09:32;3.20;99.90
13998;DHT22;7074;51.508;7.018;2023-04-06T05:12:00;3.20;99.90
13998;DHT22;7074;51.508;7.018;2023-04-06T05:14:32;3.20;99.90
13998;DHT22;7074;51.508;7.018;2023-04-06T05:17:01;3.20;99.90
13998;DHT22;7074;51.508;7.018;2023-04-06T05:19:29;3.20;99.90
13998;DHT22;7074;51.508;7.018;2023-04-06T05:21:57;3.20;99.90
13998;DHT22;7074;51.508;7.018;2023-04-06T05:24:26;3.20;99.90
13998;DHT22;7074;51.508;7.018;2023-04-06T05:26:55;3.20;99.90
13998;DHT22;7074;51.508;7.018;2023-04-06T05:29:24;3.30;99.90
13998;DHT22;7074;51.508;7.018;2023-04-06T05:31:52;3.30;99.90
13998;DHT22;7074;51.508;7.018;2023-04-06T05:34:19;3.30;99.90
13998;DHT22;7074;51.508;7.018;2023-04-06T05:36:49;3.30;99.90
13998;DHT22;7074;51.508;7.018;2023-04-06T05:39:20;3.40;99.90
13998;DHT22;7074;51.508;7.018;2023-04-06T05:41:51;3.40;99.90
13998;DHT22;7074;51.508;7.018;2023-04-06T05:44:31;3.50;99.90
13998;DHT22;7074;51.508;7.018;2023-04-06T05:47:05;3.40;99.90
13998;DHT22;7074;51.508;7.018;2023-04-06T05:49:34;3.50;99.90
13998;DHT22;7074;51.508;7.018;2023-04-06T05:52:01;3.50;99.90
13998;DHT22;7074;51.508;7.018;2023-04-06T05:54:31;3.50;99.90
13998;DHT22;7074;51.508;7.018;2023-04-06T05:57:03;3.60;99.90
13998;DHT22;7074;51.508;7.018;2023-04-06T05:59:31;3.70;99.90
13998;DHT22;7074;51.508;7.018;2023-04-06T06:01:59;3.80;99.90
13998;DHT22;7074;51.508;7.018;2023-04-06T06:04:29;3.90;99.90
13998;DHT22;7074;51.508;7.018;2023-04-06T06:06:57;4.10;99.90
13998;DHT22;7074;51.508;7.018;2023-04-06T06:09:34;4.10;99.90
13998;DHT22;7074;51.508;7.018;2023-04-06T06:12:17;4.20;99.90
13998;DHT22;7074;51.508;7.018;2023-04-06T06:14:44;4.30;99.90
13998;DHT22;7074;51.508;7.018;2023-04-06T06:17:12;4.40;99.90
13998;DHT22;7074;51.508;7.018;2023-04-06T06:19:41;4.60;99.90
13998;DHT22;7074;51.508;7.018;2023-04-06T06:22:09;4.70;99.90
13998;DHT22;7074;51.508;7.018;2023-04-06T06:24:40;4.80;99.90
13998;DHT22;7074;51.508;7.018;2023-04-06T06:27:08;5.00;99.90
13998;DHT22;7074;51.508;7.018;2023-04-06T06:29:39;5.10;99.90
13998;DHT22;7074;51.508;7.018;2023-04-06T06:32:06;5.20;99.90
13998;DHT22;7074;51.508;7.018;2023-04-06T06:34:35;5.40;99.90
13998;DHT22;7074;51.508;7.018;2023-04-06T06:37:05;5.60;99.90
13998;DHT22;7074;51.508;7.018;2023-04-06T06:39:36;5.70;99.90
13998;DHT22;7074;51.508;7.018;2023-04-06T06:42:03;5.80;99.90
13998;DHT22;7074;51.508;7.018;2023-04-06T06:44:51;6.00;99.90
13998;DHT22;7074;51.508;7.018;2023-04-06T06:47:19;6.20;99.90
13998;DHT22;7074;51.508;7.018;2023-04-06T06:49:46;6.40;99.90
13998;DHT22;7074;51.508;7.018;2023-04-06T06:52:13;6.60;99.90
13998;DHT22;7074;51.508;7.018;2023-04-06T06:54:41;6.80;99.90
13998;DHT22;7074;51.508;7.018;2023-04-06T06:57:09;7.00;99.90
13998;DHT22;7074;51.508;7.018;2023-04-06T06:59:37;7.20;99.90
13998;DHT22;7074;51.508;7.018;2023-04-06T07:02:06;7.40;99.90
13998;DHT22;7074;51.508;7.018;2023-04-06T07:04:33;7.50;99.90
13998;DHT22;7074;51.508;7.018;2023-04-06T07:07:01;7.60;99.90
13998;DHT22;7074;51.508;7.018;2023-04-06T07:09:35;7.70;99.90
13998;DHT22;7074;51.508;7.018;2023-04-06T07:12:03;7.90;99.90
13998;DHT22;7074;51.508;7.018;2023-04-06T07:14:33;8.10;99.90
13998;DHT22;7074;51.508;7.018;2023-04-06T07:17:00;8.30;99.90
13998;DHT22;7074;51.508;7.018;2023-04-06T07:19:29;8.40;99.90
13998;DHT22;7074;51.508;7.018;2023-04-06T07:21:57;8.50;99.20
13998;DHT22;7074;51.508;7.018;2023-04-06T07:24:26;8.70;98.40
13998;DHT22;7074;51.508;7.018;2023-04-06T07:26:53;8.90;98.40
13998;DHT22;7074;51.508;7.018;2023-04-06T07:29:21;9.00;98.00
13998;DHT22;7074;51.508;7.018;2023-04-06T07:31:49;9.10;97.10
13998;DHT22;7074;51.508;7.018;2023-04-06T07:34:16;9.30;96.70
13998;DHT22;7074;51.508;7.018;2023-04-06T07:36:45;9.40;96.20
13998;DHT22;7074;51.508;7.018;2023-04-06T07:39:13;9.50;95.40
13998;DHT22;7074;51.508;7.018;2023-04-06T07:41:41;9.60;95.10
13998;DHT22;7074;51.508;7.018;2023-04-06T07:44:08;9.80;95.00
13998;DHT22;7074;51.508;7.018;2023-04-06T07:46:36;10.00;94.00
13998;DHT22;7074;51.508;7.018;2023-04-06T07:49:04;10.20;93.10
13998;DHT22;7074;51.508;7.018;2023-04-06T07:51:35;10.30;92.70
13998;DHT22;7074;51.508;7.018;2023-04-06T07:54:04;10.30;91.60
13998;DHT22;7074;51.508;7.018;2023-04-06T07:56:32;10.50;91.60
13998;DHT22;7074;51.508;7.018;2023-04-06T07:58:59;10.70;91.00
13998;DHT22;7074;51.508;7.018;2023-04-06T08:01:28;10.80;90.00
13998;DHT22;7074;51.508;7.018;2023-04-06T08:03:55;10.90;88.50
13998;DHT22;7074;51.508;7.018;2023-04-06T08:06:23;11.10;87.30
13998;DHT22;7074;51.508;7.018;2023-04-06T08:08:50;11.20;86.50
13998;DHT22;7074;51.508;7.018;2023-04-06T08:11:19;11.40;85.20
13998;DHT22;7074;51.508;7.018;2023-04-06T08:13:47;11.40;84.70
13998;DHT22;7074;51.508;7.018;2023-04-06T08:16:14;11.50;83.80
13998;DHT22;7074;51.508;7.018;2023-04-06T08:18:41;11.60;83.50
13998;DHT22;7074;51.508;7.018;2023-04-06T08:21:09;11.60;82.10
13998;DHT22;7074;51.508;7.018;2023-04-06T08:23:36;11.60;82.20
13998;DHT22;7074;51.508;7.018;2023-04-06T08:26:04;11.70;81.00
13998;DHT22;7074;51.508;7.018;2023-04-06T08:28:33;11.80;80.10
13998;DHT22;7074;51.508;7.018;2023-04-06T08:31:04;11.80;79.40
13998;DHT22;7074;51.508;7.018;2023-04-06T08:33:32;11.90;77.20
13998;DHT22;7074;51.508;7.018;2023-04-06T08:36:07;12.00;76.90
13998;DHT22;7074;51.508;7.018;2023-04-06T08:38:35;12.10;75.80
13998;DHT22;7074;51.508;7.018;2023-04-06T08:41:07;12.00;74.40
13998;DHT22;7074;51.508;7.018;2023-04-06T08:43:42;12.10;74.50
13998;DHT22;7074;51.508;7.018;2023-04-06T08:46:10;12.00;74.70
13998;DHT22;7074;51.508;7.018;2023-04-06T08:48:38;12.10;74.70
13998;DHT22;7074;51.508;7.018;2023-04-06T08:51:08;12.20;73.10
13998;DHT22;7074;51.508;7.018;2023-04-06T08:53:35;12.30;72.00
13998;DHT22;7074;51.508;7.018;2023-04-06T08:56:04;12.40;71.70
13998;DHT22;7074;51.508;7.018;2023-04-06T08:58:34;12.40;69.40
13998;DHT22;7074;51.508;7.018;2023-04-06T09:01:07;12.50;68.80
13998;DHT22;7074;51.508;7.018;2023-04-06T09:03:38;12.60;68.40
13998;DHT22;7074;51.508;7.018;2023-04-06T09:06:06;12.70;65.50
13998;DHT22;7074;51.508;7.018;2023-04-06T09:08:35;12.70;63.90
13998;DHT22;7074;51.508;7.018;2023-04-06T09:11:02;12.70;65.30
13998;DHT22;7074;51.508;7.018;2023-04-06T09:13:30;12.90;66.40
13998;DHT22;7074;51.508;7.018;2023-04-06T09:16:03;13.00;63.80
13998;DHT22;7074;51.508;7.018;2023-04-06T09:18:33;13.10;63.10
13998;DHT22;7074;51.508;7.018;2023-04-06T09:21:02;13.40;64.80
13998;DHT22;7074;51.508;7.018;2023-04-06T09:23:30;13.50;62.20
13998;DHT22;7074;51.508;7.018;2023-04-06T09:26:08;13.70;62.00
13998;DHT22;7074;51.508;7.018;2023-04-06T09:28:46;14.00;61.20
13998;DHT22;7074;51.508;7.018;2023-04-06T09:31:21;14.10;59.10
13998;DHT22;7074;51.508;7.018;2023-04-06T09:33:48;14.20;56.40
13998;DHT22;7074;51.508;7.018;2023-04-06T09:36:16;14.30;56.00
13998;DHT22;7074;51.508;7.018;2023-04-06T09:38:53;14.40;55.40
13998;DHT22;7074;51.508;7.018;2023-04-06T09:41:22;14.50;54.20
13998;DHT22;7074;51.508;7.018;2023-04-06T09:43:51;14.70;55.30
13998;DHT22;7074;51.508;7.018;2023-04-06T09:46:21;14.40;52.80
13998;DHT22;7074;51.508;7.018;2023-04-06T09:48:50;14.70;54.00
13998;DHT22;7074;51.508;7.018;2023-04-06T09:51:18;14.70;53.00
13998;DHT22;7074;51.508;7.018;2023-04-06T09:53:52;14.90;53.40
13998;DHT22;7074;51.508;7.018;2023-04-06T09:56:23;15.00;53.10
13998;DHT22;7074;51.508;7.018;2023-04-06T09:58:54;14.80;52.50
13998;DHT22;7074;51.508;7.018;2023-04-06T10:01:26;14.90;53.50
13998;DHT22;7074;51.508;7.018;2023-04-06T10:04:01;15.10;53.10
13998;DHT22;7074;51.508;7.018;2023-04-06T10:06:33;15.10;53.90
13998;DHT22;7074;51.508;7.018;2023-04-06T10:09:02;15.20;53.30
13998;DHT22;7074;51.508;7.018;2023-04-06T10:11:31;15.30;53.90
13998;DHT22;7074;51.508;7.018;2023-04-06T10:13:58;15.20;53.50
13998;DHT22;7074;51.508;7.018;2023-04-06T10:16:28;15.20;53.00
13998;DHT22;7074;51.508;7.018;2023-04-06T10:19:01;15.30;53.40
13998;DHT22;7074;51.508;7.018;2023-04-06T10:21:32;15.30;52.80
13998;DHT22;7074;51.508;7.018;2023-04-06T10:24:01;15.30;53.70
13998;DHT22;7074;51.508;7.018;2023-04-06T10:26:29;15.30;53.10
13998;DHT22;7074;51.508;7.018;2023-04-06T10:29:02;15.20;53.50
13998;DHT22;7074;51.508;7.018;2023-04-06T10:31:31;15.30;53.30
13998;DHT22;7074;51.508;7.018;2023-04-06T10:34:00;15.30;53.20
13998;DHT22;7074;51.508;7.018;2023-04-06T10:36:32;15.40;53.60
13998;DHT22;7074;51.508;7.018;2023-04-06T10:39:01;15.50;53.30
13998;DHT22;7074;51.508;7.018;2023-04-06T10:41:33;15.60;52.70
13998;DHT22;7074;51.508;7.018;2023-04-06T10:44:01;15.80;52.40
13998;DHT22;7074;51.508;7.018;2023-04-06T10:46:32;15.90;52.10
13998;DHT22;7074;51.508;7.018;2023-04-06T10:49:10;15.80;52.70
13998;DHT22;7074;51.508;7.018;2023-04-06T10:51:38;15.80;52.80
13998;DHT22;7074;51.508;7.018;2023-04-06T10:54:07;15.90;52.50
13998;DHT22;7074;51.508;7.018;2023-04-06T10:56:37;16.10;52.20
13998;DHT22;7074;51.508;7.018;2023-04-06T10:59:06;16.30;52.30
13998;DHT22;7074;51.508;7.018;2023-04-06T11:01:35;16.40;51.40
13998;DHT22;7074;51.508;7.018;2023-04-06T11:04:03;16.50;52.20
13998;DHT22;7074;51.508;7.018;2023-04-06T11:06:31;16.60;51.70
13998;DHT22;7074;51.508;7.018;2023-04-06T11:08:58;16.60;50.90
13998;DHT22;7074;51.508;7.018;2023-04-06T11:11:26;16.60;50.80
13998;DHT22;7074;51.508;7.018;2023-04-06T11:13:55;16.50;50.70
13998;DHT22;7074;51.508;7.018;2023-04-06T11:16:24;16.30;51.10
13998;DHT22;7074;51.508;7.018;2023-04-06T11:18:55;16.40;52.20
13998;DHT22;7074;51.508;7.018;2023-04-06T11:21:33;16.30;51.90
13998;DHT22;7074;51.508;7.018;2023-04-06T11:24:06;16.30;51.90
13998;DHT22;7074;51.508;7.018;2023-04-06T11:26:40;16.30;52.60
13998;DHT22;7074;51.508;7.018;2023-04-06T11:29:09;16.30;52.30
13998;DHT22;7074;51.508;7.018;2023-04-06T11:31:41;16.30;52.80
13998;DHT22;7074;51.508;7.018;2023-04-06T11:34:16;16.40;52.80
13998;DHT22;7074;51.508;7.018;2023-04-06T11:36:44;16.40;52.30
13998;DHT22;7074;51.508;7.018;2023-04-06T11:39:13;16.40;53.30
13998;DHT22;7074;51.508;7.018;2023-04-06T11:41:40;16.40;53.50
13998;DHT22;7074;51.508;7.018;2023-04-06T11:44:08;16.40;53.70
13998;DHT22;7074;51.508;7.018;2023-04-06T11:46:36;16.50;52.90
13998;DHT22;7074;51.508;7.018;2023-04-06T11:49:03;16.40;52.90
13998;DHT22;7074;51.508;7.018;2023-04-06T11:51:35;16.30;52.90
13998;DHT22;7074;51.508;7.018;2023-04-06T11:54:03;16.20;52.40
13998;DHT22;7074;51.508;7.018;2023-04-06T11:56:30;16.10;52.90
13998;DHT22;7074;51.508;7.018;2023-04-06T11:58:58;16.20;53.10
13998;DHT22;7074;51.508;7.018;2023-04-06T12:01:27;16.20;54.30
13998;DHT22;7074;51.508;7.018;2023-04-06T12:03:54;16.30;53.00
13998;DHT22;7074;51.508;7.018;2023-04-06T12:06:22;16.10;52.80
13998;DHT22;7074;51.508;7.018;2023-04-06T12:08:53;16.10;53.50
13998;DHT22;7074;51.508;7.018;2023-04-06T12:11:20;16.20;52.90
13998;DHT22;7074;51.508;7.018;2023-04-06T12:13:47;16.20;53.50
13998;DHT22;7074;51.508;7.018;2023-04-06T12:16:15;16.20;53.20
13998;DHT22;7074;51.508;7.018;2023-04-06T12:18:44;16.10;53.00
13998;DHT22;7074;51.508;7.018;2023-04-06T12:21:12;16.20;53.50
13998;DHT22;7074;51.508;7.018;2023-04-06T12:23:39;16.20;52.70
13998;DHT22;7074;51.508;7.018;2023-04-06T12:26:08;16.10;52.30
13998;DHT22;7074;51.508;7.018;2023-04-06T12:28:36;16.10;54.10
13998;DHT22;7074;51.508;7.018;2023-04-06T12:31:03;16.20;54.80
13998;DHT22;7074;51.508;7.018;2023-04-06T12:33:33;16.30;54.10
13998;DHT22;7074;51.508;7.018;2023-04-06T12:36:00;16.50;55.20
13998;DHT22;7074;51.508;7.018;2023-04-06T12:38:28;16.40;54.70
13998;DHT22;7074;51.508;7.018;2023-04-06T12:40:56;16.30;54.20
13998;DHT22;7074;51.508;7.018;2023-04-06T12:43:25;16.30;54.50
13998;DHT22;7074;51.508;7.018;2023-04-06T12:45:52;16.10;55.00
13998;DHT22;7074;51.508;7.018;2023-04-06T12:48:19;15.90;55.70
13998;DHT22;7074;51.508;7.018;2023-04-06T12:50:54;15.80;56.90
13998;DHT22;7074;51.508;7.018;2023-04-06T12:53:21;15.80;56.80
13998;DHT22;7074;51.508;7.018;2023-04-06T12:55:49;15.90;56.70
13998;DHT22;7074;51.508;7.018;2023-04-06T12:58:16;15.90;57.80
13998;DHT22;7074;51.508;7.018;2023-04-06T13:00:46;15.80;58.80
13998;DHT22;7074;51.508;7.018;2023-04-06T13:03:13;15.60;59.60
13998;DHT22;7074;51.508;7.018;2023-04-06T13:05:43;15.60;59.80
13998;DHT22;7074;51.508;7.018;2023-04-06T13:08:11;15.60;60.30
13998;DHT22;7074;51.508;7.018;2023-04-06T13:10:43;15.60;60.30
13998;DHT22;7074;51.508;7.018;2023-04-06T13:13:10;15.50;59.90
13998;DHT22;7074;51.508;7.018;2023-04-06T13:15:38;15.60;60.60
13998;DHT22;7074;51.508;7.018;2023-04-06T13:18:06;15.60;60.40
13998;DHT22;7074;51.508;7.018;2023-04-06T13:20:34;15.50;61.00
13998;DHT22;7074;51.508;7.018;2023-04-06T13:23:01;15.50;60.70
13998;DHT22;7074;51.508;7.018;2023-04-06T13:25:29;15.40;61.40
13998;DHT22;7074;51.508;7.018;2023-04-06T13:27:58;15.40;62.10
13998;DHT22;7074;51.508;7.018;2023-04-06T13:30:26;15.30;60.20
13998;DHT22;7074;51.508;7.018;2023-04-06T13:33:00;15.30;59.90
13998;DHT22;7074;51.508;7.018;2023-04-06T13:35:28;15.30;61.00
13998;DHT22;7074;51.508;7.018;2023-04-06T13:37:56;15.30;60.90
13998;DHT22;7074;51.508;7.018;2023-04-06T13:40:23;15.30;61.20
13998;DHT22;7074;51.508;7.018;2023-04-06T13:42:50;15.20;62.20
13998;DHT22;7074;51.508;7.018;2023-04-06T13:45:18;15.10;62.80
13998;DHT22;7074;51.508;7.018;2023-04-06T13:47:45;15.10;63.60
13998;DHT22;7074;51.508;7.018;2023-04-06T13:50:13;15.20;64.30
13998;DHT22;7074;51.508;7.018;2023-04-06T13:52:41;15.00;65.20
13998;DHT22;7074;51.508;7.018;2023-04-06T13:55:09;15.00;66.10
13998;DHT22;7074;51.508;7.018;2023-04-06T13:57:37;14.90;68.40
13998;DHT22;7074;51.508;7.018;2023-04-06T14:00:06;14.90;68.20
13998;DHT22;7074;51.508;7.018;2023-04-06T14:02:34;14.90;68.10
13998;DHT22;7074;51.508;7.018;2023-04-06T14:05:02;14.90;69.50
13998;DHT22;7074;51.508;7.018;2023-04-06T14:07:29;14.80;72.10
13998;DHT22;7074;51.508;7.018;2023-04-06T14:09:58;14.70;74.90
13998;DHT22;7074;51.508;7.018;2023-04-06T14:12:25;14.70;77.00
13998;DHT22;7074;51.508;7.018;2023-04-06T14:14:53;14.60;78.70
13998;DHT22;7074;51.508;7.018;2023-04-06T14:17:21;14.70;78.20
13998;DHT22;7074;51.508;7.018;2023-04-06T14:19:48;14.60;77.70
13998;DHT22;7074;51.508;7.018;2023-04-06T14:22:17;14.80;80.20
13998;DHT22;7074;51.508;7.018;2023-04-06T14:24:44;14.80;78.10
13998;DHT22;7074;51.508;7.018;2023-04-06T14:27:14;14.70;78.80
13998;DHT22;7074;51.508;7.018;2023-04-06T14:29:41;14.70;78.80
13998;DHT22;7074;51.508;7.018;2023-04-06T14:32:08;14.60;78.70
13998;DHT22;7074;51.508;7.018;2023-04-06T14:34:37;14.50;79.30
13998;DHT22;7074;51.508;7.018;2023-04-06T14:37:04;14.40;80.70
13998;DHT22;7074;51.508;7.018;2023-04-06T14:39:32;14.40;82.40
13998;DHT22;7074;51.508;7.018;2023-04-06T14:41:59;14.40;83.50
13998;DHT22;7074;51.508;7.018;2023-04-06T14:44:28;14.40;84.30
13998;DHT22;7074;51.508;7.018;2023-04-06T14:46:55;14.20;87.30
13998;DHT22;7074;51.508;7.018;2023-04-06T14:49:23;14.20;89.30
13998;DHT22;7074;51.508;7.018;2023-04-06T14:51:50;14.10;91.00
13998;DHT22;7074;51.508;7.018;2023-04-06T14:54:18;14.10;92.90
13998;DHT22;7074;51.508;7.018;2023-04-06T14:56:46;14.10;93.60
13998;DHT22;7074;51.508;7.018;2023-04-06T14:59:13;14.10;95.20
13998;DHT22;7074;51.508;7.018;2023-04-06T15:01:42;14.10;95.20
13998;DHT22;7074;51.508;7.018;2023-04-06T15:04:09;14.00;95.00
13998;DHT22;7074;51.508;7.018;2023-04-06T15:06:37;14.10;94.90
13998;DHT22;7074;51.508;7.018;2023-04-06T15:09:04;14.10;95.10
13998;DHT22;7074;51.508;7.018;2023-04-06T15:11:32;13.90;98.00
13998;DHT22;7074;51.508;7.018;2023-04-06T15:14:00;13.90;99.90
13998;DHT22;7074;51.508;7.018;2023-04-06T15:16:27;14.00;99.90
13998;DHT22;7074;51.508;7.018;2023-04-06T15:18:59;14.00;99.90
13998;DHT22;7074;51.508;7.018;2023-04-06T15:21:27;13.90;99.90
13998;DHT22;7074;51.508;7.018;2023-04-06T15:23:54;14.00;99.90
13998;DHT22;7074;51.508;7.018;2023-04-06T15:26:22;14.00;99.90
13998;DHT22;7074;51.508;7.018;2023-04-06T15:28:49;14.00;99.90
13998;DHT22;7074;51.508;7.018;2023-04-06T15:31:17;14.00;99.90
13998;DHT22;7074;51.508;7.018;2023-04-06T15:33:46;14.00;99.90
13998;DHT22;7074;51.508;7.018;2023-04-06T15:36:23;13.90;99.90
13998;DHT22;7074;51.508;7.018;2023-04-06T15:38:52;13.80;99.90
13998;DHT22;7074;51.508;7.018;2023-04-06T15:41:19;13.70;99.90
13998;DHT22;7074;51.508;7.018;2023-04-06T15:43:47;13.80;99.90
13998;DHT22;7074;51.508;7.018;2023-04-06T15:46:14;13.70;99.90
13998;DHT22;7074;51.508;7.018;2023-04-06T15:48:41;13.60;99.90
13998;DHT22;7074;51.508;7.018;2023-04-06T15:51:09;13.50;99.90
13998;DHT22;7074;51.508;7.018;2023-04-06T15:53:38;13.40;99.90
13998;DHT22;7074;51.508;7.018;2023-04-06T15:56:06;13.30;99.90
13998;DHT22;7074;51.508;7.018;2023-04-06T15:58:34;13.30;99.90
13998;DHT22;7074;51.508;7.018;2023-04-06T16:01:11;13.20;99.90
13998;DHT22;7074;51.508;7.018;2023-04-06T16:03:39;13.10;99.90
13998;DHT22;7074;51.508;7.018;2023-04-06T16:06:06;12.80;99.90